createdAt,value
2023-05-18T00:00:20.320Z,27.58
2023-05-18T00:01:20.356Z,27.59
2023-05-18T00:02:20.377Z,27.59
2023-05-18T00:03:20.453Z,27.62
2023-05-18T00:04:20.462Z,27.56
2023-05-18T00:05:20.468Z,27.59
2023-05-18T00:06:20.439Z,27.59
2023-05-18T00:07:20.455Z,27.60
2023-05-18T00:08:20.466Z,27.59
2023-05-18T00:09:20.490Z,27.58
2023-05-18T00:10:20.541Z,27.59
2023-05-18T00:11:20.515Z,27.63
2023-05-18T00:12:20.550Z,27.60
2023-05-18T00:13:20.572Z,27.58
2023-05-18T00:14:20.595Z,27.59
2023-05-18T00:15:20.613Z,27.59
2023-05-18T00:16:20.673Z,27.60
2023-05-18T00:17:20.662Z,27.59
2023-05-18T00:18:20.660Z,27.63
2023-05-18T00:19:20.829Z,27.59
2023-05-18T00:20:20.712Z,27.60
2023-05-18T00:21:20.743Z,27.60
2023-05-18T00:22:20.774Z,27.63
2023-05-18T00:23:20.818Z,27.60
2023-05-18T00:24:20.862Z,27.61
2023-05-18T00:25:20.855Z,27.62
2023-05-18T00:26:20.867Z,27.61
2023-05-18T00:27:20.865Z,27.62
2023-05-18T00:28:20.895Z,27.58
2023-05-18T00:29:20.961Z,27.63
2023-05-18T00:30:20.961Z,27.59
2023-05-18T00:31:21.011Z,27.62
2023-05-18T00:32:21.009Z,27.58
2023-05-18T00:33:21.014Z,27.63
2023-05-18T00:34:21.042Z,27.60
2023-05-18T00:35:21.078Z,27.53
2023-05-18T00:36:21.079Z,27.58
2023-05-18T00:37:21.113Z,27.62
2023-05-18T00:38:21.157Z,27.55
2023-05-18T00:39:21.236Z,27.58
2023-05-18T00:40:21.195Z,27.56
2023-05-18T00:41:21.204Z,27.60
2023-05-18T00:42:21.252Z,27.59
2023-05-18T00:43:21.269Z,27.60
2023-05-18T00:44:21.297Z,27.59
2023-05-18T00:45:21.324Z,27.59
2023-05-18T00:46:21.397Z,27.56
2023-05-18T00:47:21.441Z,27.60
2023-05-18T00:48:21.520Z,27.58
2023-05-18T00:49:21.448Z,27.58
2023-05-18T00:50:21.473Z,27.58
2023-05-18T00:51:21.499Z,27.60
2023-05-18T00:52:21.524Z,27.59
2023-05-18T00:53:21.564Z,27.59
2023-05-18T00:54:21.581Z,27.60
2023-05-18T00:55:21.718Z,27.59
2023-05-18T00:56:21.639Z,27.60
2023-05-18T00:57:21.655Z,27.60
2023-05-18T00:58:21.683Z,27.57
2023-05-18T00:59:21.764Z,27.58
2023-05-18T01:00:21.731Z,27.63
2023-05-18T01:01:21.815Z,27.59
2023-05-18T01:02:21.857Z,27.60
2023-05-18T01:03:21.826Z,27.60
2023-05-18T01:04:21.970Z,27.63
2023-05-18T01:05:21.861Z,27.59
2023-05-18T01:06:21.896Z,27.66
2023-05-18T01:07:21.898Z,27.63
2023-05-18T01:08:21.931Z,27.63
2023-05-18T01:09:21.945Z,27.59
2023-05-18T01:10:21.974Z,27.62
2023-05-18T01:11:22.110Z,27.63
2023-05-18T01:12:22.014Z,27.67
2023-05-18T01:13:22.066Z,27.63
2023-05-18T01:14:22.090Z,27.66
2023-05-18T01:15:22.102Z,27.66
2023-05-18T01:16:22.165Z,27.63
2023-05-18T01:17:22.248Z,27.66
2023-05-18T01:18:22.173Z,27.70
2023-05-18T01:19:22.232Z,27.63
2023-05-18T01:20:22.228Z,27.67
2023-05-18T01:21:22.273Z,27.65
2023-05-18T01:22:22.317Z,27.67
2023-05-18T01:23:22.282Z,27.66
2023-05-18T01:24:22.345Z,27.63
2023-05-18T01:25:22.327Z,27.69
2023-05-18T01:26:22.372Z,27.67
2023-05-18T01:27:22.381Z,27.64
2023-05-18T01:28:22.437Z,27.69
2023-05-18T01:29:22.470Z,27.69
2023-05-18T01:30:22.491Z,27.68
2023-05-18T01:31:22.606Z,27.64
2023-05-18T01:32:22.541Z,27.70
2023-05-18T01:33:22.566Z,27.70
2023-05-18T01:34:22.645Z,27.67
2023-05-18T01:35:22.616Z,27.68
2023-05-18T01:36:22.632Z,27.67
2023-05-18T01:37:22.681Z,27.67
2023-05-18T01:38:22.711Z,27.69
2023-05-18T01:39:22.769Z,27.66
2023-05-18T01:40:23.178Z,27.67
2023-05-18T01:41:22.800Z,27.67
2023-05-18T01:42:22.796Z,27.69
2023-05-18T01:43:22.829Z,27.68
2023-05-18T01:44:22.866Z,27.64
2023-05-18T01:45:22.891Z,27.67
2023-05-18T01:46:22.963Z,27.67
2023-05-18T01:47:22.970Z,27.65
2023-05-18T01:48:23.018Z,27.63
2023-05-18T01:49:22.988Z,27.69
2023-05-18T01:50:23.034Z,27.65
2023-05-18T01:51:23.056Z,27.64
2023-05-18T01:52:23.080Z,27.68
2023-05-18T01:53:23.110Z,27.69
2023-05-18T01:54:23.125Z,27.70
2023-05-18T01:55:23.153Z,27.69
2023-05-18T01:56:23.182Z,27.72
2023-05-18T01:57:23.192Z,27.73
2023-05-18T01:58:23.265Z,27.73
2023-05-18T01:59:23.239Z,27.71
2023-05-18T02:00:23.309Z,27.70
2023-05-18T02:01:23.434Z,27.68
2023-05-18T02:02:23.348Z,27.67
2023-05-18T02:03:23.414Z,27.70
2023-05-18T02:04:23.395Z,27.71
2023-05-18T02:05:23.461Z,27.73
2023-05-18T02:06:23.447Z,27.70
2023-05-18T02:07:23.463Z,27.68
2023-05-18T02:08:23.478Z,27.71
2023-05-18T02:09:23.527Z,27.79
2023-05-18T02:10:23.542Z,27.73
2023-05-18T02:11:23.579Z,27.76
2023-05-18T02:12:23.580Z,27.76
2023-05-18T02:13:23.623Z,27.71
2023-05-18T02:14:23.650Z,27.68
2023-05-18T02:15:23.655Z,27.71
2023-05-18T02:16:23.776Z,27.71
2023-05-18T02:17:23.785Z,27.73
2023-05-18T02:18:23.753Z,27.77
2023-05-18T02:19:23.925Z,27.74
2023-05-18T02:20:23.827Z,27.73
2023-05-18T02:21:23.831Z,27.77
2023-05-18T02:22:23.858Z,27.75
2023-05-18T02:23:23.888Z,27.71
2023-05-18T02:24:23.919Z,27.73
2023-05-18T02:25:23.964Z,27.75
2023-05-18T02:26:23.981Z,27.73
2023-05-18T02:27:24.003Z,27.77
2023-05-18T02:28:24.029Z,27.74
2023-05-18T02:29:24.085Z,27.74
2023-05-18T02:30:24.093Z,27.73
2023-05-18T02:31:24.151Z,27.74
2023-05-18T02:32:24.209Z,27.74
2023-05-18T02:33:24.181Z,27.74
2023-05-18T02:34:24.230Z,27.76
2023-05-18T02:35:24.254Z,27.74
2023-05-18T02:36:24.273Z,27.78
2023-05-18T02:37:24.311Z,27.71
2023-05-18T02:38:24.331Z,27.75
2023-05-18T02:39:24.355Z,27.72
2023-05-18T02:40:24.404Z,27.75
2023-05-18T02:41:24.415Z,27.77
2023-05-18T02:42:24.440Z,27.75
2023-05-18T02:43:24.496Z,27.79
2023-05-18T02:44:24.504Z,27.73
2023-05-18T02:45:24.569Z,27.77
2023-05-18T02:46:24.753Z,27.75
2023-05-18T02:47:24.666Z,27.77
2023-05-18T02:48:24.637Z,27.75
2023-05-18T02:49:24.662Z,27.71
2023-05-18T02:50:24.696Z,27.75
2023-05-18T02:51:24.727Z,27.71
2023-05-18T02:52:24.750Z,27.75
2023-05-18T02:53:24.777Z,27.73
2023-05-18T02:54:24.811Z,27.77
2023-05-18T02:55:24.820Z,27.72
2023-05-18T02:56:24.843Z,27.74
2023-05-18T02:57:24.873Z,27.73
2023-05-18T02:58:24.907Z,27.77
2023-05-18T02:59:24.944Z,27.70
2023-05-18T03:00:24.996Z,27.74
2023-05-18T03:01:25.083Z,27.77
2023-05-18T03:02:25.121Z,27.75
2023-05-18T03:03:25.181Z,27.74
2023-05-18T03:04:25.118Z,27.78
2023-05-18T03:05:25.139Z,27.77
2023-05-18T03:06:25.198Z,27.74
2023-05-18T03:07:25.209Z,27.74
2023-05-18T03:08:25.245Z,27.79
2023-05-18T03:09:25.299Z,27.75
2023-05-18T03:10:25.699Z,27.80
2023-05-18T03:11:25.344Z,27.79
2023-05-18T03:12:25.361Z,27.77
2023-05-18T03:13:25.405Z,27.80
2023-05-18T03:14:25.449Z,27.78
2023-05-18T03:15:25.452Z,27.81
2023-05-18T03:16:25.526Z,27.75
2023-05-18T03:17:25.545Z,27.81
2023-05-18T03:18:25.632Z,27.81
2023-05-18T03:19:25.628Z,27.77
2023-05-18T03:20:25.620Z,27.75
2023-05-18T03:21:25.701Z,27.77
2023-05-18T03:22:25.687Z,27.78
2023-05-18T03:23:25.691Z,27.77
2023-05-18T03:24:25.726Z,27.77
2023-05-18T03:25:25.751Z,27.75
2023-05-18T03:26:25.790Z,27.80
2023-05-18T03:27:25.798Z,27.81
2023-05-18T03:28:25.829Z,27.75
2023-05-18T03:29:25.881Z,27.75
2023-05-18T03:30:25.916Z,27.75
2023-05-18T03:31:26.003Z,27.75
2023-05-18T03:32:25.983Z,27.80
2023-05-18T03:33:25.989Z,27.75
2023-05-18T03:34:26.011Z,27.77
2023-05-18T03:35:26.095Z,27.79
2023-05-18T03:36:26.078Z,27.82
2023-05-18T03:37:26.095Z,27.77
2023-05-18T03:38:26.140Z,27.77
2023-05-18T03:39:26.169Z,27.75
2023-05-18T03:40:26.209Z,27.78
2023-05-18T03:41:26.229Z,27.80
2023-05-18T03:42:26.275Z,27.81
2023-05-18T03:43:26.289Z,27.84
2023-05-18T03:44:26.356Z,27.77
2023-05-18T03:45:26.355Z,27.81
2023-05-18T03:46:26.451Z,27.80
2023-05-18T03:47:26.423Z,27.80
2023-05-18T03:48:26.440Z,27.77
2023-05-18T03:49:26.490Z,27.80
2023-05-18T03:50:26.522Z,27.78
2023-05-18T03:51:26.548Z,27.80
2023-05-18T03:52:26.615Z,27.78
2023-05-18T03:53:26.599Z,27.78
2023-05-18T03:54:26.643Z,27.75
2023-05-18T03:55:26.643Z,27.81
2023-05-18T03:56:26.689Z,27.80
2023-05-18T03:57:26.702Z,27.78
2023-05-18T03:58:26.747Z,27.78
2023-05-18T03:59:26.800Z,27.81
2023-05-18T04:00:26.807Z,27.80
2023-05-18T04:01:26.829Z,27.82
2023-05-18T04:02:27.017Z,27.80
2023-05-18T04:03:27.054Z,27.78
2023-05-18T04:04:26.946Z,27.85
2023-05-18T04:05:26.939Z,27.82
2023-05-18T04:06:26.982Z,27.81
2023-05-18T04:07:27.038Z,27.80
2023-05-18T04:08:27.040Z,27.78
2023-05-18T04:09:27.056Z,27.78
2023-05-18T04:10:27.103Z,27.82
2023-05-18T04:11:27.131Z,27.77
2023-05-18T04:12:27.170Z,27.78
2023-05-18T04:13:27.182Z,27.75
2023-05-18T04:14:27.212Z,27.81
2023-05-18T04:15:27.236Z,27.81
2023-05-18T04:16:27.279Z,27.77
2023-05-18T04:17:27.330Z,27.82
2023-05-18T04:18:27.329Z,27.81
2023-05-18T04:19:27.386Z,27.82
2023-05-18T04:20:27.401Z,27.80
2023-05-18T04:21:27.417Z,27.80
2023-05-18T04:22:27.455Z,27.78
2023-05-18T04:23:27.523Z,27.85
2023-05-18T04:24:27.513Z,27.84
2023-05-18T04:25:27.535Z,27.81
2023-05-18T04:26:27.567Z,27.81
2023-05-18T04:27:27.592Z,27.81
2023-05-18T04:28:27.629Z,27.85
2023-05-18T04:29:27.689Z,27.84
2023-05-18T04:30:27.703Z,27.83
2023-05-18T04:31:27.752Z,27.82
2023-05-18T04:32:27.757Z,27.79
2023-05-18T04:33:27.775Z,27.81
2023-05-18T04:34:27.818Z,27.85
2023-05-18T04:35:27.961Z,27.80
2023-05-18T04:36:27.835Z,27.84
2023-05-18T04:37:27.853Z,27.79
2023-05-18T04:38:27.874Z,27.82
2023-05-18T04:39:27.907Z,27.81
2023-05-18T04:40:27.948Z,27.82
2023-05-18T04:41:27.969Z,27.79
2023-05-18T04:42:27.984Z,27.83
2023-05-18T04:43:28.024Z,27.80
2023-05-18T04:44:28.044Z,27.83
2023-05-18T04:45:28.151Z,27.82
2023-05-18T04:46:28.211Z,27.83
2023-05-18T04:47:28.141Z,27.79
2023-05-18T04:48:28.127Z,27.82
2023-05-18T04:49:28.188Z,27.84
2023-05-18T04:50:28.194Z,27.80
2023-05-18T04:51:28.193Z,27.82
2023-05-18T04:52:28.218Z,27.87
2023-05-18T04:53:28.226Z,27.80
2023-05-18T04:54:28.327Z,27.80
2023-05-18T04:55:29.235Z,27.82
2023-05-18T04:56:28.315Z,27.80
2023-05-18T04:57:28.318Z,27.83
2023-05-18T04:58:30.414Z,27.83
2023-05-18T04:59:28.389Z,27.82
2023-05-18T05:00:28.382Z,27.78
2023-05-18T05:01:28.439Z,27.79
2023-05-18T05:02:28.450Z,27.78
2023-05-18T05:03:28.556Z,27.81
2023-05-18T05:04:28.467Z,27.76
2023-05-18T05:05:28.577Z,27.76
2023-05-18T05:06:28.470Z,27.76
2023-05-18T05:07:28.511Z,27.79
2023-05-18T05:08:28.508Z,27.71
2023-05-18T05:09:28.518Z,27.77
2023-05-18T05:10:28.551Z,27.75
2023-05-18T05:11:28.543Z,27.75
2023-05-18T05:12:28.547Z,27.75
2023-05-18T05:13:28.562Z,27.73
2023-05-18T05:14:28.567Z,27.70
2023-05-18T05:15:28.655Z,27.74
2023-05-18T05:16:28.697Z,27.74
2023-05-18T05:17:28.646Z,27.78
2023-05-18T05:18:28.607Z,27.76
2023-05-18T05:19:28.725Z,27.71
2023-05-18T05:20:28.667Z,27.74
2023-05-18T05:21:28.644Z,27.77
2023-05-18T05:22:28.679Z,27.70
2023-05-18T05:23:28.676Z,27.63
2023-05-18T05:24:28.697Z,27.67
2023-05-18T05:25:29.009Z,27.66
2023-05-18T05:26:28.693Z,27.66
2023-05-18T05:27:28.735Z,27.63
2023-05-18T05:28:28.720Z,27.60
2023-05-18T05:29:28.745Z,27.58
2023-05-18T05:30:28.753Z,27.60
2023-05-18T05:31:28.777Z,27.56
2023-05-18T05:32:28.784Z,27.58
2023-05-18T05:33:28.804Z,27.55
2023-05-18T05:34:28.798Z,27.50
2023-05-18T05:35:30.444Z,27.53
2023-05-18T05:36:28.807Z,27.55
2023-05-18T05:37:28.796Z,27.47
2023-05-18T05:38:28.788Z,27.51
2023-05-18T05:39:28.808Z,27.44
2023-05-18T05:40:28.774Z,27.51
2023-05-18T05:41:30.024Z,27.42
2023-05-18T05:42:28.747Z,27.46
2023-05-18T05:43:28.751Z,27.49
2023-05-18T05:44:28.751Z,27.45
2023-05-18T05:45:29.008Z,27.48
2023-05-18T05:46:28.764Z,27.45
2023-05-18T05:47:28.753Z,27.47
2023-05-18T05:48:28.737Z,27.41
2023-05-18T05:49:28.725Z,27.47
2023-05-18T05:50:28.702Z,27.44
2023-05-18T05:51:28.700Z,27.44
2023-05-18T05:52:28.706Z,27.39
2023-05-18T05:53:28.687Z,27.41
2023-05-18T05:54:28.676Z,27.35
2023-05-18T05:55:28.877Z,27.34
2023-05-18T05:56:28.661Z,27.31
2023-05-18T05:57:28.662Z,27.26
2023-05-18T05:58:28.671Z,27.30
2023-05-18T05:59:28.696Z,27.28
2023-05-18T06:00:28.683Z,27.28
2023-05-18T06:01:28.671Z,27.24
2023-05-18T06:02:28.834Z,27.30
2023-05-18T06:03:28.718Z,27.26
2023-05-18T06:04:28.837Z,27.22
2023-05-18T06:05:28.877Z,27.19
2023-05-18T06:06:28.708Z,27.20
2023-05-18T06:07:28.702Z,27.17
2023-05-18T06:08:28.713Z,27.16
2023-05-18T06:09:28.711Z,27.13
2023-05-18T06:10:28.711Z,27.06
2023-05-18T06:11:28.712Z,27.05
2023-05-18T06:12:28.693Z,27.06
2023-05-18T06:13:28.689Z,27.05
2023-05-18T06:14:28.694Z,27.02
2023-05-18T06:15:28.788Z,27.01
2023-05-18T06:16:28.737Z,27.01
2023-05-18T06:17:28.723Z,26.96
2023-05-18T06:18:28.731Z,26.98
2023-05-18T06:19:28.712Z,26.99
2023-05-18T06:20:28.732Z,26.97
2023-05-18T06:21:28.711Z,26.98
2023-05-18T06:22:28.710Z,26.98
2023-05-18T06:23:28.715Z,26.91
2023-05-18T06:24:28.694Z,26.91
2023-05-18T06:25:28.904Z,27.00
2023-05-18T06:26:28.696Z,26.96
2023-05-18T06:27:28.726Z,26.93
2023-05-18T06:28:28.713Z,26.97
2023-05-18T06:29:28.726Z,26.93
2023-05-18T06:30:28.741Z,26.93
2023-05-18T06:31:30.248Z,26.94
2023-05-18T06:32:28.877Z,26.96
2023-05-18T06:33:28.787Z,26.90
2023-05-18T06:34:28.797Z,26.97
2023-05-18T06:35:28.954Z,26.95
2023-05-18T06:36:28.804Z,26.97
2023-05-18T06:37:28.830Z,26.97
2023-05-18T06:38:28.867Z,27.02
2023-05-18T06:39:28.907Z,26.96
2023-05-18T06:40:28.976Z,26.96
2023-05-18T06:41:28.956Z,26.95
2023-05-18T06:42:29.017Z,26.90
2023-05-18T06:43:29.110Z,26.95
2023-05-18T06:44:29.098Z,26.90
2023-05-18T06:45:29.643Z,26.85
2023-05-18T06:46:29.263Z,26.91
2023-05-18T06:47:29.288Z,26.92
2023-05-18T06:48:29.317Z,26.90
2023-05-18T06:49:29.362Z,26.90
2023-05-18T06:50:29.494Z,26.84
2023-05-18T06:51:29.536Z,26.88
2023-05-18T06:52:29.572Z,26.83
2023-05-18T06:53:29.615Z,26.86
2023-05-18T06:54:29.679Z,26.88
2023-05-18T06:55:29.896Z,26.90
2023-05-18T06:56:29.805Z,26.86
2023-05-18T06:57:29.856Z,26.87
2023-05-18T06:58:29.909Z,26.89
2023-05-18T06:59:29.986Z,26.87
2023-05-18T07:00:30.049Z,26.82
2023-05-18T07:01:30.137Z,26.84
2023-05-18T07:02:30.198Z,26.82
2023-05-18T07:03:30.271Z,26.80
2023-05-18T07:04:30.250Z,26.80
2023-05-18T07:05:30.540Z,26.82
2023-05-18T07:06:30.394Z,26.77
2023-05-18T07:07:30.510Z,26.84
2023-05-18T07:08:30.475Z,26.82
2023-05-18T07:09:30.535Z,26.83
2023-05-18T07:10:30.700Z,26.80
2023-05-18T07:11:30.653Z,26.76
2023-05-18T07:12:30.714Z,26.79
2023-05-18T07:13:30.767Z,26.80
2023-05-18T07:14:30.816Z,26.82
2023-05-18T07:15:31.058Z,26.80
2023-05-18T07:16:30.988Z,26.84
2023-05-18T07:17:31.025Z,26.75
2023-05-18T07:18:31.050Z,26.82
2023-05-18T07:19:31.192Z,26.82
2023-05-18T07:20:31.156Z,26.82
2023-05-18T07:21:31.216Z,26.82
2023-05-18T07:22:31.261Z,26.79
2023-05-18T07:23:31.352Z,26.80
2023-05-18T07:24:31.386Z,26.76
2023-05-18T07:25:31.641Z,26.79
2023-05-18T07:26:31.479Z,26.81
2023-05-18T07:27:31.561Z,26.79
2023-05-18T07:28:31.686Z,26.79
2023-05-18T07:29:31.683Z,26.71
2023-05-18T07:30:31.713Z,26.74
2023-05-18T07:31:31.841Z,26.75
2023-05-18T07:32:31.878Z,26.74
2023-05-18T07:33:31.893Z,26.79
2023-05-18T07:34:31.972Z,26.74
2023-05-18T07:35:32.211Z,26.77
2023-05-18T07:36:32.044Z,26.68
2023-05-18T07:37:32.106Z,26.68
2023-05-18T07:38:32.134Z,26.70
2023-05-18T07:39:32.216Z,26.67
2023-05-18T07:40:32.276Z,26.64
2023-05-18T07:41:32.333Z,26.67
2023-05-18T07:42:32.390Z,26.63
2023-05-18T07:43:32.447Z,26.63
2023-05-18T07:44:32.485Z,26.60
2023-05-18T07:45:32.859Z,26.59
2023-05-18T07:46:32.627Z,26.61
2023-05-18T07:47:32.690Z,26.59
2023-05-18T07:48:32.708Z,26.56
2023-05-18T07:49:32.762Z,26.52
2023-05-18T07:50:32.835Z,26.52
2023-05-18T07:51:32.920Z,26.49
2023-05-18T07:52:32.913Z,26.52
2023-05-18T07:53:32.975Z,26.48
2023-05-18T07:54:33.040Z,26.51
2023-05-18T07:55:33.343Z,26.47
2023-05-18T07:56:33.127Z,26.42
2023-05-18T07:57:33.197Z,26.41
2023-05-18T07:58:33.255Z,26.40
2023-05-18T07:59:33.305Z,26.40
2023-05-18T08:00:33.364Z,26.41
2023-05-18T08:01:33.419Z,26.39
2023-05-18T08:02:34.006Z,26.34
2023-05-18T08:03:33.625Z,26.34
2023-05-18T08:04:33.574Z,26.33
2023-05-18T08:05:33.756Z,26.27
2023-05-18T08:06:33.647Z,26.26
2023-05-18T08:07:33.689Z,26.30
2023-05-18T08:08:33.755Z,26.27
2023-05-18T08:09:33.798Z,26.26
2023-05-18T08:10:33.848Z,26.30
2023-05-18T08:11:33.945Z,26.27
2023-05-18T08:12:33.943Z,26.29
2023-05-18T08:13:34.337Z,26.30
2023-05-18T08:14:34.032Z,26.29
2023-05-18T08:15:34.084Z,26.27
2023-05-18T08:16:34.179Z,26.27
2023-05-18T08:17:34.217Z,26.30
2023-05-18T08:18:34.249Z,26.30
2023-05-18T08:19:34.288Z,26.34
2023-05-18T08:20:34.359Z,26.30
2023-05-18T08:21:34.407Z,26.32
2023-05-18T08:22:34.455Z,26.26
2023-05-18T08:23:34.530Z,26.34
2023-05-18T08:24:34.569Z,26.29
2023-05-18T08:25:34.606Z,26.30
2023-05-18T08:26:34.652Z,26.27
2023-05-18T08:27:34.740Z,26.22
2023-05-18T08:28:34.782Z,26.30
2023-05-18T08:29:34.833Z,26.29
2023-05-18T08:30:34.870Z,26.23
2023-05-18T08:31:34.971Z,26.19
2023-05-18T08:32:34.995Z,26.23
2023-05-18T08:33:35.034Z,26.23
2023-05-18T08:34:35.081Z,26.17
2023-05-18T08:35:35.178Z,26.26
2023-05-18T08:36:35.188Z,26.24
2023-05-18T08:37:35.227Z,26.22
2023-05-18T08:38:35.283Z,26.24
2023-05-18T08:39:35.325Z,26.20
2023-05-18T08:40:35.394Z,26.21
2023-05-18T08:41:35.422Z,26.14
2023-05-18T08:42:46.071Z,26.16
2023-05-18T08:43:36.478Z,26.13
2023-05-18T08:44:35.463Z,26.12
2023-05-18T08:45:35.467Z,26.16
2023-05-18T08:46:35.472Z,26.10
2023-05-18T08:47:35.545Z,26.09
2023-05-18T08:48:35.502Z,26.09
2023-05-18T08:49:35.429Z,26.12
2023-05-18T08:50:35.449Z,26.16
2023-05-18T08:51:35.410Z,26.05
2023-05-18T08:52:35.414Z,26.10
2023-05-18T08:53:35.412Z,26.09
2023-05-18T08:54:35.448Z,26.05
2023-05-18T08:55:35.483Z,26.02
2023-05-18T08:56:35.525Z,26.06
2023-05-18T08:57:35.591Z,26.05
2023-05-18T08:58:35.616Z,26.03
2023-05-18T08:59:35.720Z,26.06
2023-05-18T09:00:35.865Z,26.00
2023-05-18T09:01:35.804Z,25.95
2023-05-18T09:02:35.924Z,25.99
2023-05-18T09:03:35.855Z,25.96
2023-05-18T09:04:35.927Z,25.98
2023-05-18T09:05:36.109Z,25.95
2023-05-18T09:06:36.037Z,25.92
2023-05-18T09:07:36.073Z,25.92
2023-05-18T09:08:36.085Z,25.95
2023-05-18T09:09:36.139Z,25.89
2023-05-18T09:10:36.195Z,25.88
2023-05-18T09:11:36.239Z,25.85
2023-05-18T09:12:36.288Z,25.84
2023-05-18T09:13:36.327Z,25.84
2023-05-18T09:14:36.396Z,25.88
2023-05-18T09:15:36.449Z,25.87
2023-05-18T09:16:36.527Z,25.84
2023-05-18T09:17:36.555Z,25.87
2023-05-18T09:18:36.617Z,25.85
2023-05-18T09:19:36.611Z,25.78
2023-05-18T09:20:36.658Z,25.81
2023-05-18T09:21:36.713Z,25.79
2023-05-18T09:22:36.768Z,25.81
2023-05-18T09:23:36.813Z,25.77
2023-05-18T09:24:36.869Z,25.81
2023-05-18T09:25:36.912Z,25.72
2023-05-18T09:26:36.950Z,25.77
2023-05-18T09:27:37.040Z,25.74
2023-05-18T09:28:37.047Z,25.78
2023-05-18T09:29:37.087Z,25.76
2023-05-18T09:30:37.132Z,25.69
2023-05-18T09:31:37.173Z,25.76
2023-05-18T09:32:37.243Z,25.67
2023-05-18T09:33:37.338Z,25.70
2023-05-18T09:34:37.285Z,25.70
2023-05-18T09:35:37.768Z,25.67
2023-05-18T09:36:37.390Z,25.70
2023-05-18T09:37:37.470Z,25.67
2023-05-18T09:38:37.459Z,25.67
2023-05-18T09:39:37.528Z,25.70
2023-05-18T09:40:37.609Z,25.64
2023-05-18T09:41:37.614Z,25.70
2023-05-18T09:42:37.655Z,25.70
2023-05-18T09:43:37.698Z,25.57
2023-05-18T09:44:37.732Z,25.59
2023-05-18T09:45:37.771Z,25.62
2023-05-18T09:46:37.826Z,25.63
2023-05-18T09:47:37.921Z,25.56
2023-05-18T09:48:37.887Z,25.62
2023-05-18T09:49:37.926Z,25.53
2023-05-18T09:50:37.962Z,25.52
2023-05-18T09:51:37.992Z,25.45
2023-05-18T09:52:38.040Z,25.52
2023-05-18T09:53:38.074Z,25.52
2023-05-18T09:54:38.127Z,25.45
2023-05-18T09:55:38.139Z,25.43
2023-05-18T09:56:38.181Z,25.39
2023-05-18T09:57:38.185Z,25.29
2023-05-18T09:58:38.245Z,25.42
2023-05-18T09:59:38.270Z,25.45
2023-05-18T10:00:38.331Z,25.33
2023-05-18T10:01:38.327Z,25.32
2023-05-18T10:02:38.439Z,25.28
2023-05-18T10:03:38.420Z,25.33
2023-05-18T10:04:38.489Z,25.29
2023-05-18T10:05:38.669Z,25.36
2023-05-18T10:06:38.534Z,25.31
2023-05-18T10:07:38.576Z,25.19
2023-05-18T10:08:38.624Z,25.29
2023-05-18T10:09:38.646Z,25.42
2023-05-18T10:10:38.671Z,25.28
2023-05-18T10:11:38.723Z,25.25
2023-05-18T10:12:38.771Z,25.29
2023-05-18T10:13:38.782Z,25.22
2023-05-18T10:14:38.839Z,25.19
2023-05-18T10:15:38.878Z,25.15
2023-05-18T10:16:38.934Z,25.23
2023-05-18T10:17:39.189Z,25.19
2023-05-18T10:18:39.104Z,25.14
2023-05-18T10:19:39.005Z,25.12
2023-05-18T10:20:39.062Z,25.12
2023-05-18T10:21:39.088Z,25.14
2023-05-18T10:22:39.143Z,25.14
2023-05-18T10:23:39.198Z,25.04
2023-05-18T10:24:39.221Z,25.06
2023-05-18T10:25:39.257Z,25.05
2023-05-18T10:26:39.297Z,25.14
2023-05-18T10:27:39.332Z,25.06
2023-05-18T10:28:39.384Z,25.05
2023-05-18T10:29:39.448Z,25.05
2023-05-18T10:30:39.511Z,25.12
2023-05-18T10:31:39.496Z,25.05
2023-05-18T10:32:39.556Z,24.99
2023-05-18T10:33:39.743Z,24.99
2023-05-18T10:34:39.595Z,24.92
2023-05-18T10:35:39.635Z,24.99
2023-05-18T10:36:39.680Z,24.95
2023-05-18T10:37:39.725Z,24.92
2023-05-18T10:38:39.870Z,25.02
2023-05-18T10:39:39.789Z,24.98
2023-05-18T10:40:39.830Z,24.99
2023-05-18T10:41:39.856Z,24.97
2023-05-18T10:42:39.873Z,24.89
2023-05-18T10:43:39.936Z,24.91
2023-05-18T10:44:39.983Z,24.88
2023-05-18T10:45:40.004Z,24.92
2023-05-18T10:46:40.156Z,24.88
2023-05-18T10:47:40.402Z,24.92
2023-05-18T10:48:40.111Z,24.96
2023-05-18T10:49:40.154Z,24.88
2023-05-18T10:50:40.209Z,24.85
2023-05-18T10:51:40.249Z,24.88
2023-05-18T10:52:40.281Z,24.88
2023-05-18T10:53:40.333Z,24.85
2023-05-18T10:54:40.370Z,24.76
2023-05-18T10:55:40.397Z,24.86
2023-05-18T10:56:40.428Z,24.79
2023-05-18T10:57:40.471Z,24.83
2023-05-18T10:58:40.525Z,24.79
2023-05-18T10:59:42.560Z,24.75
2023-05-18T11:00:40.612Z,24.72
2023-05-18T11:01:40.650Z,24.81
2023-05-18T11:02:40.783Z,24.73
2023-05-18T11:03:40.752Z,24.77
2023-05-18T11:04:40.859Z,24.72
2023-05-18T11:05:40.772Z,24.69
2023-05-18T11:06:40.814Z,24.71
2023-05-18T11:07:40.861Z,24.72
2023-05-18T11:08:40.883Z,24.72
2023-05-18T11:09:40.931Z,24.68
2023-05-18T11:10:40.999Z,24.72
2023-05-18T11:11:40.993Z,24.77
2023-05-18T11:12:41.066Z,24.72
2023-05-18T11:13:41.075Z,24.72
2023-05-18T11:14:41.120Z,24.72
2023-05-18T11:15:41.155Z,24.73
2023-05-18T11:16:41.229Z,24.75
2023-05-18T11:17:41.254Z,24.77
2023-05-18T11:18:41.268Z,24.74
2023-05-18T11:19:41.265Z,24.78
2023-05-18T11:20:41.315Z,24.75
2023-05-18T11:21:41.354Z,24.75
2023-05-18T11:22:41.392Z,24.79
2023-05-18T11:23:41.412Z,24.78
2023-05-18T11:24:41.439Z,24.77
2023-05-18T11:25:41.475Z,24.78
2023-05-18T11:26:41.531Z,24.76
2023-05-18T11:27:41.547Z,24.81
2023-05-18T11:28:41.602Z,24.76
2023-05-18T11:29:41.619Z,24.80
2023-05-18T11:30:41.692Z,24.84
2023-05-18T11:31:41.810Z,24.84
2023-05-18T11:32:41.773Z,24.80
2023-05-18T11:33:41.799Z,24.74
2023-05-18T11:34:41.788Z,24.82
2023-05-18T11:35:41.811Z,24.76
2023-05-18T11:36:41.831Z,24.76
2023-05-18T11:37:41.877Z,24.82
2023-05-18T11:38:41.914Z,24.87
2023-05-18T11:39:51.599Z,24.79
2023-05-18T11:40:42.958Z,24.80
2023-05-18T11:41:41.913Z,24.83
2023-05-18T11:42:41.916Z,24.84
2023-05-18T11:43:41.897Z,24.88
2023-05-18T11:44:41.890Z,24.83
2023-05-18T11:45:41.899Z,24.86
2023-05-18T11:46:41.932Z,24.87
2023-05-18T11:47:42.076Z,24.78
2023-05-18T11:48:41.932Z,24.83
2023-05-18T11:49:41.888Z,24.80
2023-05-18T11:50:41.877Z,24.81
2023-05-18T11:51:41.889Z,24.77
2023-05-18T11:52:41.837Z,24.76
2023-05-18T11:53:41.854Z,24.81
2023-05-18T11:54:41.864Z,24.78
2023-05-18T11:55:41.831Z,24.78
2023-05-18T11:56:41.825Z,24.74
2023-05-18T11:57:41.832Z,24.78
2023-05-18T11:58:41.886Z,24.80
2023-05-18T11:59:41.921Z,24.71
2023-05-18T12:00:42.029Z,24.77
2023-05-18T12:01:41.991Z,24.77
2023-05-18T12:02:42.012Z,24.72
2023-05-18T12:03:42.074Z,24.73
2023-05-18T12:04:42.097Z,24.70
2023-05-18T12:05:42.085Z,24.71
2023-05-18T12:06:42.118Z,24.76
2023-05-18T12:07:42.146Z,24.80
2023-05-18T12:08:42.147Z,24.79
2023-05-18T12:09:42.180Z,24.79
2023-05-18T12:10:42.233Z,24.76
2023-05-18T12:11:42.282Z,24.76
2023-05-18T12:12:42.258Z,24.81
2023-05-18T12:13:42.303Z,24.78
2023-05-18T12:14:42.316Z,24.78
2023-05-18T12:15:42.365Z,24.70
2023-05-18T12:16:42.446Z,24.77
2023-05-18T12:17:42.455Z,24.69
2023-05-18T12:18:42.539Z,24.74
2023-05-18T12:19:42.468Z,24.73
2023-05-18T12:20:42.530Z,24.74
2023-05-18T12:21:42.547Z,24.73
2023-05-18T12:22:42.580Z,24.76
2023-05-18T12:23:42.590Z,24.77
2023-05-18T12:24:42.614Z,24.73
2023-05-18T12:25:42.680Z,24.74
2023-05-18T12:26:42.674Z,24.71
2023-05-18T12:27:42.759Z,24.71
2023-05-18T12:28:42.728Z,24.76
2023-05-18T12:29:42.779Z,24.74
2023-05-18T12:30:42.835Z,24.73
2023-05-18T12:31:42.847Z,24.76
2023-05-18T12:32:42.906Z,24.66
2023-05-18T12:33:42.899Z,24.70
2023-05-18T12:34:42.915Z,24.69
2023-05-18T12:35:42.997Z,24.66
2023-05-18T12:36:42.990Z,24.76
2023-05-18T12:37:45.271Z,24.64
2023-05-18T12:38:43.005Z,24.66
2023-05-18T12:39:42.995Z,24.69
2023-05-18T12:40:42.998Z,24.74
2023-05-18T12:41:42.983Z,24.70
2023-05-18T12:42:42.992Z,24.73
2023-05-18T12:43:42.972Z,24.74
2023-05-18T12:44:42.975Z,24.74
2023-05-18T12:45:42.959Z,24.72
2023-05-18T12:46:43.052Z,24.74
2023-05-18T12:47:43.028Z,24.77
2023-05-18T12:48:42.951Z,24.74
2023-05-18T12:49:42.947Z,24.74
2023-05-18T12:50:43.710Z,24.71
2023-05-18T12:51:42.908Z,24.71
2023-05-18T12:52:42.891Z,24.77